createdAt,value
2018-07-05T00:00:21.339Z,86.86
2018-07-05T00:03:00.944Z,87.64
2018-07-05T00:05:40.707Z,86.96
2018-07-05T00:08:20.597Z,87.21
2018-07-05T00:11:00.280Z,87.06
2018-07-05T00:13:40.079Z,87.56
2018-07-05T00:16:19.834Z,87.23
2018-07-05T00:18:59.595Z,86.40
2018-07-05T00:21:39.328Z,84.33
2018-07-05T00:24:19.059Z,84.08
2018-07-05T00:26:58.811Z,83.94
2018-07-05T00:29:38.588Z,84.10
2018-07-05T00:32:18.262Z,82.33
2018-07-05T00:34:58.104Z,82.44
2018-07-05T00:37:37.730Z,81.84
2018-07-05T00:40:17.422Z,80.95
2018-07-05T00:42:57.168Z,80.06
2018-07-05T00:45:36.948Z,79.05
2018-07-05T00:48:16.685Z,78.91
2018-07-05T00:50:56.464Z,79.47
2018-07-05T00:53:36.338Z,79.16
2018-07-05T00:56:16.214Z,79.18
2018-07-05T00:58:56.118Z,77.33
2018-07-05T01:01:35.851Z,74.96
2018-07-05T01:04:15.620Z,74.30
2018-07-05T01:06:55.313Z,74.27
2018-07-05T01:09:35.078Z,72.89
2018-07-05T01:12:15.051Z,69.88
2018-07-05T01:14:54.933Z,69.20
2018-07-05T01:17:35.008Z,68.19
2018-07-05T01:20:14.965Z,68.03
2018-07-05T01:22:54.709Z,65.83
2018-07-05T01:25:34.543Z,66.18
2018-07-05T01:28:14.408Z,65.82
2018-07-05T01:30:54.273Z,65.17
2018-07-05T01:33:34.010Z,65.45
2018-07-05T01:36:13.809Z,66.57
2018-07-05T01:38:53.646Z,66.38
2018-07-05T01:41:33.338Z,66.84
2018-07-05T01:44:13.083Z,66.81
2018-07-05T01:46:52.842Z,66.37
2018-07-05T01:49:32.667Z,66.32
2018-07-05T01:52:12.790Z,66.15
2018-07-05T01:54:53.232Z,64.80
2018-07-05T02:02:54.640Z,64.80
2018-07-05T02:05:34.985Z,64.32
2018-07-05T02:08:14.672Z,64.98
2018-07-05T02:10:54.470Z,66.68
2018-07-05T02:13:34.402Z,70.64
2018-07-05T02:16:14.172Z,72.85
2018-07-05T02:18:53.943Z,79.87
2018-07-05T02:21:33.918Z,81.60
2018-07-05T02:24:13.648Z,84.57
2018-07-05T02:26:53.388Z,85.45
2018-07-05T02:29:33.129Z,88.01
2018-07-05T02:32:12.870Z,92.40
2018-07-05T02:34:52.799Z,95.24
2018-07-05T02:37:37.938Z,97.75
2018-07-05T02:40:17.686Z,98.52
2018-07-05T02:42:57.414Z,99.31
2018-07-05T02:45:37.163Z,100.00
2018-07-05T02:48:16.945Z,100.00
2018-07-05T02:50:57.238Z,100.00
2018-07-05T02:53:37.003Z,100.00
2018-07-05T02:56:16.915Z,100.00
2018-07-05T02:58:56.590Z,100.00
2018-07-05T03:01:36.383Z,100.00
2018-07-05T03:04:16.074Z,100.00
2018-07-05T03:06:55.679Z,100.00
2018-07-05T03:09:35.362Z,100.00
2018-07-05T03:12:14.995Z,100.00
2018-07-05T03:14:54.811Z,100.00
2018-07-05T03:17:34.609Z,100.00
2018-07-05T03:20:14.476Z,100.00
2018-07-05T03:22:54.290Z,100.00
2018-07-05T03:25:34.055Z,100.00
2018-07-05T03:28:13.860Z,100.00
2018-07-05T03:30:53.533Z,100.00
2018-07-05T03:33:33.237Z,100.00
2018-07-05T03:36:12.910Z,100.00
2018-07-05T03:38:52.834Z,100.00
2018-07-05T03:41:32.518Z,100.00
2018-07-05T03:44:12.271Z,100.00
2018-07-05T03:46:52.100Z,100.00
2018-07-05T03:49:31.683Z,100.00
2018-07-05T03:52:11.624Z,100.00
2018-07-05T03:54:51.624Z,100.00
2018-07-05T03:57:31.252Z,100.00
2018-07-05T04:00:11.067Z,100.00
2018-07-05T04:02:50.855Z,100.00
2018-07-05T04:05:30.760Z,100.00
2018-07-05T04:08:10.575Z,100.00
2018-07-05T04:10:50.386Z,100.00
2018-07-05T04:13:30.067Z,100.00
2018-07-05T04:16:10.362Z,100.00
2018-07-05T04:18:50.226Z,100.00
2018-07-05T04:21:30.018Z,100.00
2018-07-05T04:24:13.216Z,100.00
2018-07-05T04:26:53.148Z,100.00
2018-07-05T04:29:32.841Z,100.00
2018-07-05T04:32:12.679Z,100.00
2018-07-05T04:34:52.427Z,100.00
2018-07-05T04:37:32.151Z,100.00
2018-07-05T04:40:11.890Z,100.00
2018-07-05T04:42:51.751Z,100.00
2018-07-05T04:45:31.901Z,100.00
2018-07-05T04:48:11.842Z,100.00
2018-07-05T04:50:51.543Z,100.00
2018-07-05T04:53:31.367Z,100.00
2018-07-05T04:56:11.344Z,100.00
2018-07-05T04:58:51.324Z,100.00
2018-07-05T05:01:30.899Z,100.00
2018-07-05T05:04:10.583Z,100.00
2018-07-05T05:06:50.370Z,100.00
2018-07-05T05:09:30.218Z,100.00
2018-07-05T05:12:09.837Z,100.00
2018-07-05T05:14:49.564Z,98.23
2018-07-05T05:17:29.363Z,98.46
2018-07-05T05:20:09.026Z,99.12
2018-07-05T05:22:49.006Z,96.54
2018-07-05T05:25:28.702Z,96.69
2018-07-05T05:28:08.467Z,97.05
2018-07-05T05:30:48.300Z,97.22
2018-07-05T05:33:28.049Z,96.32
2018-07-05T05:36:07.742Z,90.77
2018-07-05T05:38:47.462Z,89.76
2018-07-05T05:41:29.965Z,91.02
2018-07-05T05:44:09.639Z,91.39
2018-07-05T05:46:49.367Z,92.40
2018-07-05T05:49:29.149Z,88.85
2018-07-05T05:52:09.026Z,89.57
2018-07-05T05:54:48.789Z,90.61
2018-07-05T05:57:28.487Z,91.43
2018-07-05T06:00:08.376Z,89.17
2018-07-05T06:02:48.196Z,89.00
2018-07-05T06:05:28.045Z,89.81
2018-07-05T06:08:07.863Z,91.37
2018-07-05T06:10:47.507Z,89.41
2018-07-05T06:13:28.168Z,91.17
2018-07-05T06:16:07.873Z,88.87
2018-07-05T06:18:47.516Z,89.62
2018-07-05T06:21:27.193Z,87.96
2018-07-05T06:24:07.114Z,89.89
2018-07-05T06:26:46.747Z,89.54
2018-07-05T06:29:27.166Z,88.58
2018-07-05T06:32:07.006Z,88.88
2018-07-05T06:34:46.842Z,88.82
2018-07-05T06:37:26.589Z,87.81
2018-07-05T06:40:06.151Z,87.53
2018-07-05T06:42:45.901Z,88.30
2018-07-05T06:45:25.700Z,88.62
2018-07-05T06:48:05.610Z,86.06
2018-07-05T06:50:45.363Z,85.50
2018-07-05T06:53:25.108Z,87.10
2018-07-05T06:56:04.948Z,86.05
2018-07-05T06:58:44.671Z,87.62
2018-07-05T07:01:24.481Z,88.15
2018-07-05T07:04:04.099Z,87.02
2018-07-05T07:06:43.707Z,86.88
2018-07-05T07:09:24.543Z,88.63
2018-07-05T07:12:04.301Z,88.81
2018-07-05T07:14:44.091Z,89.00
2018-07-05T07:17:23.908Z,90.48
2018-07-05T07:20:03.932Z,92.18
2018-07-05T07:22:43.609Z,93.04
2018-07-05T07:25:23.152Z,94.28
2018-07-05T07:28:02.934Z,96.56
2018-07-05T07:30:42.688Z,96.34
2018-07-05T07:33:22.375Z,97.40
2018-07-05T07:36:02.119Z,97.21
2018-07-05T07:38:41.883Z,94.93
2018-07-05T07:41:21.956Z,96.01
2018-07-05T07:43:49.191Z,94.37
2018-07-05T07:46:16.442Z,96.66
2018-07-05T07:48:43.857Z,94.09
2018-07-05T07:51:11.168Z,91.19
2018-07-05T07:53:38.446Z,93.56
2018-07-05T07:56:05.979Z,92.20
2018-07-05T07:58:33.238Z,93.09
2018-07-05T08:01:00.498Z,93.59
2018-07-05T08:03:27.746Z,94.19
2018-07-05T08:05:54.998Z,93.82
2018-07-05T08:08:22.260Z,94.04
2018-07-05T08:10:49.526Z,96.00
2018-07-05T08:13:16.811Z,93.83
2018-07-05T08:15:44.043Z,96.24
2018-07-05T08:18:11.322Z,94.28
2018-07-05T08:20:38.554Z,94.29
2018-07-05T08:23:05.826Z,94.64
2018-07-05T08:25:33.114Z,91.99
2018-07-05T08:28:00.369Z,92.45
2018-07-05T08:30:27.607Z,94.26
2018-07-05T08:32:55.078Z,94.91
2018-07-05T08:35:23.360Z,94.25
2018-07-05T08:37:50.649Z,93.33
2018-07-05T08:40:21.541Z,92.99
2018-07-05T08:42:49.255Z,95.19
2018-07-05T08:45:16.924Z,92.85
2018-07-05T08:47:44.205Z,95.51
2018-07-05T08:50:11.449Z,96.63
2018-07-05T08:52:38.750Z,94.56
2018-07-05T08:55:06.018Z,94.86
2018-07-05T08:57:37.140Z,95.32
2018-07-05T09:00:04.371Z,94.85
2018-07-05T09:02:31.631Z,95.48
2018-07-05T09:04:58.868Z,94.65
2018-07-05T09:07:26.254Z,94.44
2018-07-05T09:09:53.487Z,95.72
2018-07-05T09:12:20.759Z,96.10
2018-07-05T09:14:48.751Z,97.23
2018-07-05T09:17:15.998Z,95.40
2018-07-05T09:19:43.482Z,95.99
2018-07-05T09:22:10.732Z,97.63
2018-07-05T09:24:37.990Z,98.38
2018-07-05T09:27:05.225Z,96.73
2018-07-05T09:29:32.535Z,95.54
2018-07-05T09:31:59.839Z,96.96
2018-07-05T09:34:27.099Z,96.37
2018-07-05T09:36:54.355Z,98.00
2018-07-05T09:39:21.619Z,99.98
2018-07-05T09:41:48.887Z,100.00
2018-07-05T09:44:16.158Z,100.00
2018-07-05T09:46:43.394Z,100.00
2018-07-05T09:49:10.659Z,100.00
2018-07-05T09:51:37.886Z,100.00
2018-07-05T09:54:05.142Z,100.00
2018-07-05T09:56:32.397Z,99.82
2018-07-05T09:58:59.649Z,98.21
2018-07-05T10:01:26.900Z,100.00
2018-07-05T10:03:54.248Z,98.19
2018-07-05T10:06:21.448Z,98.38
2018-07-05T10:08:48.702Z,99.84
2018-07-05T10:11:15.970Z,100.00
2018-07-05T10:13:43.371Z,100.00
2018-07-05T10:16:10.486Z,100.00
2018-07-05T10:18:37.723Z,99.25
2018-07-05T10:21:04.979Z,99.58
2018-07-05T10:23:32.231Z,98.45
2018-07-05T10:25:59.530Z,99.39
2018-07-05T10:28:26.887Z,100.00
2018-07-05T10:31:06.587Z,100.00
2018-07-05T10:33:51.540Z,100.00
2018-07-05T10:36:18.795Z,100.00
2018-07-05T10:38:46.030Z,100.00
2018-07-05T10:41:25.622Z,100.00
2018-07-05T10:44:05.350Z,97.63
2018-07-05T10:46:45.164Z,97.07
2018-07-05T10:49:24.986Z,97.86
2018-07-05T10:52:04.659Z,96.85
2018-07-05T10:54:44.586Z,94.65
2018-07-05T10:57:24.238Z,96.07
2018-07-05T11:00:04.078Z,96.51
2018-07-05T11:02:43.786Z,93.85
2018-07-05T11:05:23.634Z,94.02
2018-07-05T11:08:03.370Z,93.66
2018-07-05T11:10:43.269Z,94.29
2018-07-05T11:13:23.069Z,92.04
2018-07-05T11:16:02.859Z,94.16
2018-07-05T11:18:42.770Z,95.13
2018-07-05T11:21:22.503Z,94.40
2018-07-05T11:24:02.514Z,95.61
2018-07-05T11:26:42.299Z,95.30
2018-07-05T11:29:22.154Z,93.64
2018-07-05T11:32:06.354Z,95.73
2018-07-05T11:34:46.102Z,95.12
2018-07-05T11:37:25.875Z,94.07
2018-07-05T11:40:07.950Z,92.91
2018-07-05T11:42:47.798Z,92.87
2018-07-05T11:45:27.897Z,92.64
2018-07-05T11:48:07.763Z,92.52
2018-07-05T11:50:47.562Z,92.74
2018-07-05T11:53:27.392Z,90.31
2018-07-05T11:56:07.087Z,91.56
2018-07-05T11:58:46.894Z,89.72
2018-07-05T12:01:26.616Z,86.35
2018-07-05T12:04:06.488Z,87.32
2018-07-05T12:06:46.180Z,86.17
2018-07-05T12:09:26.034Z,86.65
2018-07-05T12:12:05.654Z,80.84
2018-07-05T12:14:45.436Z,80.79
2018-07-05T12:17:25.249Z,76.13
2018-07-05T12:20:05.186Z,67.79
2018-07-05T12:22:45.166Z,67.50
2018-07-05T12:25:24.793Z,64.14
2018-07-05T12:28:04.411Z,63.62
2018-07-05T12:30:44.124Z,56.38
2018-07-05T12:33:23.882Z,55.60
2018-07-05T12:36:03.678Z,53.05
2018-07-05T12:38:43.695Z,54.79
2018-07-05T12:41:23.615Z,49.06
2018-07-05T12:44:03.266Z,46.58
2018-07-05T12:46:42.975Z,40.14
2018-07-05T12:49:22.855Z,45.08
2018-07-05T12:52:02.629Z,47.17
2018-07-05T12:54:42.346Z,53.18
2018-07-05T12:57:22.078Z,47.86
2018-07-05T13:00:01.938Z,51.68
2018-07-05T13:02:41.638Z,53.62
2018-07-05T13:05:21.395Z,51.37
2018-07-05T13:08:01.203Z,49.32
2018-07-05T13:10:41.010Z,52.11
2018-07-05T13:13:20.923Z,52.47
2018-07-05T13:16:00.666Z,50.67
2018-07-05T13:18:40.448Z,38.83
2018-07-05T13:21:20.287Z,34.64
2018-07-05T13:24:00.054Z,29.36
2018-07-05T13:26:39.778Z,31.98
2018-07-05T13:29:19.550Z,32.18
2018-07-05T13:32:00.813Z,40.21
2018-07-05T13:34:40.430Z,43.71
2018-07-05T13:37:20.332Z,42.48
2018-07-05T13:40:00.111Z,41.38
2018-07-05T13:42:39.850Z,40.81
2018-07-05T13:45:19.499Z,42.93
2018-07-05T13:47:59.046Z,39.57
2018-07-05T13:50:38.829Z,40.70
2018-07-05T13:53:18.657Z,34.46
2018-07-05T13:55:58.332Z,28.81
2018-07-05T13:58:38.138Z,26.36
2018-07-05T14:01:18.114Z,24.00
2018-07-05T14:03:57.910Z,24.77
2018-07-05T14:06:38.110Z,27.81
2018-07-05T14:09:17.810Z,27.83
2018-07-05T14:11:57.447Z,31.53
2018-07-05T14:14:37.363Z,39.42
2018-07-05T14:17:17.111Z,45.15
2018-07-05T14:19:56.907Z,49.30
2018-07-05T14:22:36.809Z,47.06
2018-07-05T14:25:16.471Z,36.24
2018-07-05T14:27:56.342Z,34.55
2018-07-05T14:30:36.003Z,37.84
2018-07-05T14:33:15.825Z,38.10
2018-07-05T14:35:55.510Z,35.27
2018-07-05T14:38:35.345Z,35.97
2018-07-05T14:41:14.971Z,40.41
2018-07-05T14:43:54.781Z,34.69
2018-07-05T14:46:34.571Z,36.41
2018-07-05T14:49:14.503Z,30.57
2018-07-05T14:51:54.226Z,33.22
2018-07-05T14:54:35.058Z,34.17
2018-07-05T14:57:15.004Z,31.70
2018-07-05T14:59:54.784Z,32.27
2018-07-05T15:02:34.690Z,33.31
2018-07-05T15:05:14.390Z,37.12
2018-07-05T15:07:54.076Z,41.13
2018-07-05T15:10:33.667Z,32.95
2018-07-05T15:13:13.522Z,30.03
2018-07-05T15:15:53.343Z,25.32
2018-07-05T15:18:33.346Z,26.52
2018-07-05T15:21:13.038Z,25.24
2018-07-05T15:23:52.974Z,26.28
2018-07-05T15:26:32.951Z,27.25
2018-07-05T15:29:12.732Z,29.24
2018-07-05T15:31:52.622Z,30.75
2018-07-05T15:34:32.544Z,32.55
2018-07-05T15:37:12.291Z,36.34
2018-07-05T15:39:52.134Z,35.12
2018-07-05T15:42:31.829Z,34.66
2018-07-05T15:45:11.564Z,33.45
2018-07-05T15:47:51.339Z,36.36
2018-07-05T15:50:31.163Z,40.75
2018-07-05T15:53:10.911Z,44.82
2018-07-05T15:55:50.795Z,43.82
2018-07-05T15:58:30.711Z,35.89
2018-07-05T16:01:10.413Z,34.94
2018-07-05T16:03:50.201Z,31.58
2018-07-05T16:06:29.999Z,28.14
2018-07-05T16:09:09.746Z,28.13
2018-07-05T16:11:49.513Z,33.57
2018-07-05T16:14:29.422Z,39.22
2018-07-05T16:17:09.044Z,44.60
2018-07-05T16:19:48.895Z,46.57
2018-07-05T16:22:28.753Z,49.47
2018-07-05T16:25:08.423Z,49.65
2018-07-05T16:27:47.993Z,53.10
2018-07-05T16:30:27.577Z,53.42
2018-07-05T16:33:07.339Z,54.16
2018-07-05T16:35:47.123Z,55.38
2018-07-05T16:38:26.909Z,55.51
2018-07-05T16:41:06.645Z,55.65
2018-07-05T16:43:46.483Z,56.39
2018-07-05T16:46:26.160Z,56.56
2018-07-05T16:49:05.976Z,55.38
2018-07-05T16:51:45.855Z,56.04
2018-07-05T16:54:29.836Z,57.28
2018-07-05T16:57:09.543Z,58.53
2018-07-05T16:59:49.208Z,59.67
2018-07-05T17:02:29.176Z,61.19
2018-07-05T17:05:08.834Z,62.03
2018-07-05T17:07:48.454Z,62.49
2018-07-05T17:10:28.207Z,60.68
2018-07-05T17:13:07.782Z,61.21
2018-07-05T17:15:47.458Z,59.97
2018-07-05T17:18:27.245Z,58.30
2018-07-05T17:21:06.970Z,57.02
2018-07-05T17:23:46.679Z,57.00
2018-07-05T17:26:26.462Z,56.43
2018-07-05T17:29:06.042Z,56.44
2018-07-05T17:31:46.128Z,57.10
2018-07-05T17:34:25.834Z,57.65
2018-07-05T17:37:05.741Z,58.60
2018-07-05T17:39:45.505Z,58.84
2018-07-05T17:42:25.387Z,59.58
2018-07-05T17:45:05.151Z,60.43
2018-07-05T17:47:44.884Z,61.39
2018-07-05T17:50:24.732Z,63.11
2018-07-05T17:53:04.327Z,64.83
2018-07-05T17:55:44.077Z,66.31
2018-07-05T17:58:24.114Z,66.55
2018-07-05T18:01:03.843Z,67.36
2018-07-05T18:03:43.654Z,67.97
2018-07-05T18:06:23.430Z,68.86
2018-07-05T18:09:03.318Z,69.39
2018-07-05T18:11:43.007Z,70.18
2018-07-05T18:14:22.646Z,70.32
2018-07-05T18:17:02.431Z,70.98
2018-07-05T18:19:42.346Z,71.40
2018-07-05T18:22:22.118Z,71.49
2018-07-05T18:25:01.782Z,72.16
2018-07-05T18:27:44.829Z,72.90
2018-07-05T18:30:24.614Z,72.93
2018-07-05T18:33:04.360Z,72.00
2018-07-05T18:35:44.091Z,72.12
2018-07-05T18:38:23.866Z,70.73
2018-07-05T18:41:03.678Z,70.47
2018-07-05T18:43:43.784Z,71.28
2018-07-05T18:46:23.458Z,71.92
2018-07-05T18:49:03.195Z,73.10
2018-07-05T18:51:42.804Z,73.06
2018-07-05T18:54:22.606Z,72.29
2018-07-05T18:57:02.535Z,73.95
2018-07-05T18:59:42.295Z,74.57
2018-07-05T19:02:21.966Z,75.13
2018-07-05T19:05:01.799Z,75.67
2018-07-05T19:07:41.550Z,75.39
2018-07-05T19:10:21.571Z,76.00
2018-07-05T19:13:01.304Z,74.45
2018-07-05T19:15:41.124Z,75.67
2018-07-05T19:18:25.423Z,75.40
2018-07-05T19:21:05.050Z,76.66
2018-07-05T19:23:44.600Z,77.21
2018-07-05T19:26:24.446Z,76.56
2018-07-05T19:29:04.391Z,75.93
2018-07-05T19:31:44.299Z,76.45
2018-07-05T19:34:24.135Z,75.86
2018-07-05T19:37:03.987Z,76.25
2018-07-05T19:39:43.766Z,75.70
2018-07-05T19:42:23.538Z,75.55
2018-07-05T19:45:03.278Z,75.04
2018-07-05T19:47:43.031Z,74.61
2018-07-05T19:50:22.811Z,74.27
2018-07-05T19:53:02.618Z,75.16
2018-07-05T19:55:42.402Z,75.36
2018-07-05T19:58:22.274Z,75.79
2018-07-05T20:01:02.031Z,75.92
2018-07-05T20:03:41.762Z,76.56
2018-07-05T20:06:21.526Z,76.80
2018-07-05T20:09:01.114Z,78.70
2018-07-05T20:11:45.971Z,77.61
2018-07-05T20:14:25.548Z,77.59
2018-07-05T20:17:05.423Z,77.50
2018-07-05T20:19:45.152Z,78.03
2018-07-05T20:22:24.955Z,77.02
2018-07-05T20:25:04.739Z,77.12
2018-07-05T20:27:44.698Z,78.54
2018-07-05T20:30:24.526Z,77.72
2018-07-05T20:33:04.199Z,78.32
2018-07-05T20:35:44.001Z,78.87
2018-07-05T20:38:23.723Z,78.26
2018-07-05T20:41:03.491Z,79.49
2018-07-05T20:43:43.187Z,79.87
2018-07-05T20:46:22.994Z,80.62
2018-07-05T20:49:02.945Z,82.84
2018-07-05T20:51:42.766Z,84.88
2018-07-05T20:54:22.773Z,83.47
2018-07-05T20:57:02.596Z,83.05
2018-07-05T20:59:42.179Z,83.84
2018-07-05T21:02:21.974Z,82.34
2018-07-05T21:05:01.765Z,79.90
2018-07-05T21:07:41.519Z,79.80
2018-07-05T21:10:21.249Z,78.76
2018-07-05T21:13:01.043Z,78.90
2018-07-05T21:15:40.895Z,79.96
2018-07-05T21:18:20.693Z,78.81
2018-07-05T21:21:00.407Z,77.96
2018-07-05T21:23:40.191Z,76.64
2018-07-05T21:26:19.965Z,76.12
2018-07-05T21:28:59.542Z,76.66
2018-07-05T21:31:39.478Z,76.61
2018-07-05T21:34:19.386Z,75.94
2018-07-05T21:36:59.138Z,75.98
2018-07-05T21:39:38.911Z,76.48
2018-07-05T21:42:18.864Z,76.47
2018-07-05T21:44:58.538Z,76.73
2018-07-05T21:47:38.448Z,76.64
2018-07-05T21:50:18.419Z,76.47
2018-07-05T21:52:58.210Z,76.51
2018-07-05T21:55:37.930Z,77.23
2018-07-05T21:58:17.718Z,76.81
2018-07-05T22:00:57.511Z,76.37
2018-07-05T22:03:37.482Z,77.01
2018-07-05T22:06:17.336Z,75.79
2018-07-05T22:08:57.152Z,77.21
2018-07-05T22:11:37.019Z,76.28
2018-07-05T22:14:16.928Z,76.61
2018-07-05T22:17:01.912Z,76.53
2018-07-05T22:19:47.042Z,77.20
2018-07-05T22:22:32.234Z,77.18
2018-07-05T22:25:17.242Z,77.81
2018-07-05T22:28:02.196Z,77.83
2018-07-05T22:30:47.209Z,77.93
2018-07-05T22:33:28.859Z,78.36
2018-07-05T22:36:08.839Z,77.48
2018-07-05T22:38:48.494Z,77.85
2018-07-05T22:41:28.119Z,78.39
2018-07-05T22:44:07.953Z,78.12
2018-07-05T22:46:47.683Z,78.64
2018-07-05T22:49:27.439Z,78.10
2018-07-05T22:52:07.167Z,78.90
2018-07-05T22:54:46.874Z,78.60
2018-07-05T22:57:26.658Z,78.87
2018-07-05T23:00:06.484Z,79.39
2018-07-05T23:02:46.354Z,79.37
2018-07-05T23:05:25.935Z,79.16
2018-07-05T23:08:05.783Z,79.41
2018-07-05T23:10:45.526Z,79.59
2018-07-05T23:13:25.282Z,80.24
2018-07-05T23:16:09.568Z,79.73
2018-07-05T23:18:49.224Z,79.67
2018-07-05T23:21:29.026Z,79.35
2018-07-05T23:24:08.743Z,78.77
2018-07-05T23:26:48.686Z,78.66
2018-07-05T23:29:28.754Z,79.03
2018-07-05T23:32:08.715Z,79.48
2018-07-05T23:34:48.334Z,79.25
2018-07-05T23:37:28.316Z,79.99
2018-07-05T23:40:08.126Z,80.80
2018-07-05T23:42:47.902Z,81.19
2018-07-05T23:45:27.728Z,81.30
2018-07-05T23:48:07.594Z,82.06
2018-07-05T23:50:47.354Z,82.29
2018-07-05T23:53:27.114Z,82.11
2018-07-05T23:56:06.846Z,82.09
2018-07-05T23:58:46.662Z,83.06
